Time;durP1;ratioP1;P1;durP2;ratioP2;P2;SDS_P1;SDS_P2;PMS_P1;PMS_P2;Temp;Humidity;BMP_temperature;BMP_pressure;BME280_temperature;BME280_humidity;BME280_pressure;Samples;Min_cycle;Max_cycle;Signal;HPM_P1;HPM_P2
2022/09/08 00:17:19;;;;;;;12.13;4.03;;;10.80;95.20;;;;;;1379047;28;20231;-90
2022/09/08 00:19:55;;;;;;;7.57;3.90;;;10.70;95.50;;;;;;4701462;30;20221;-90
2022/09/08 00:28:38;;;;;;;9.40;4.00;;;10.70;96.10;;;;;;5380156;24;20557;-89
2022/09/08 02:19:51;;;;;;;10.40;3.97;;;9.70;99.90;;;;;;5449330;24;20238;-87
2022/09/08 02:27:33;;;;;;;9.03;3.43;;;9.70;99.90;;;;;;4719001;30;20194;-88
2022/09/08 02:39:32;;;;;;;8.93;3.70;;;9.60;99.90;;;;;;3837767;24;20242;-91
2022/09/08 02:41:59;;;;;;;8.93;3.50;;;9.70;99.90;;;;;;4703355;30;20211;-91
2022/09/08 03:11:28;;;;;;;7.70;3.60;;;9.30;99.90;;;;;;5509371;24;20554;-91
2022/09/08 05:18:13;;;;;;;8.03;3.60;;;9.60;99.90;;;;;;4706245;30;20314;-92
2022/09/08 05:21:12;;;;;;;15.07;3.80;;;9.80;99.90;;;;;;4821004;24;20201;-88
2022/09/08 05:23:40;;;;;;;10.10;3.23;;;10.00;99.90;;;;;;4704287;30;20681;-88
2022/09/08 05:26:17;;;;;;;7.87;3.23;;;10.10;99.90;;;;;;4704487;30;20211;-86
2022/09/08 05:28:44;;;;;;;9.53;3.77;;;10.30;99.90;;;;;;4719162;30;20203;-87
2022/09/08 05:31:15;;;;;;;9.83;3.20;;;10.40;99.90;;;;;;4704244;30;20214;-87
2022/09/08 05:33:45;;;;;;;16.77;3.63;;;10.50;99.90;;;;;;4718641;30;20211;-87
2022/09/08 05:36:52;;;;;;;18.60;4.20;;;10.70;99.90;;;;;;4703997;30;20586;-86
2022/09/08 05:58:10;;;;;;;13.13;3.73;;;12.20;99.90;;;;;;4337745;28;20252;-86
2022/09/08 06:12:39;;;;;;;15.90;3.80;;;13.10;99.90;;;;;;4838745;24;20246;-85
2022/09/08 06:15:40;;;;;;;6.37;2.90;;;13.30;99.90;;;;;;4725201;24;20591;-86
2022/09/08 06:18:15;;;;;;;10.03;3.03;;;13.30;99.90;;;;;;4718377;25;20249;-86
2022/09/08 06:37:05;;;;;;;10.27;3.67;;;13.90;99.90;;;;;;4865850;24;20710;-85
2022/09/08 06:39:47;;;;;;;9.80;3.13;;;14.00;99.90;;;;;;4700284;30;20199;-85
2022/09/08 06:43:10;;;;;;;13.47;2.90;;;13.90;99.90;;;;;;4714308;30;20319;-84
2022/09/08 06:46:48;;;;;;;8.13;3.00;;;14.20;99.90;;;;;;4710267;24;20260;-83
2022/09/08 06:49:27;;;;;;;9.10;2.87;;;14.30;99.90;;;;;;4732213;24;20249;-84
2022/09/08 06:52:32;;;;;;;7.87;2.60;;;14.50;99.90;;;;;;4717536;30;20588;-84
2022/09/08 06:55:38;;;;;;;10.20;3.03;;;14.80;99.90;;;;;;4731678;30;20245;-87
2022/09/08 06:58:53;;;;;;;13.53;3.07;;;15.10;99.90;;;;;;4705904;30;20219;-85
2022/09/08 07:01:56;;;;;;;10.80;3.47;;;15.40;99.50;;;;;;4717174;30;20210;-84
2022/09/08 07:05:11;;;;;;;19.00;3.87;;;15.70;98.30;;;;;;4717277;30;20261;-81
2022/09/08 07:08:17;;;;;;;7.33;2.50;;;16.00;97.50;;;;;;4717108;30;20245;-82
2022/09/08 07:11:29;;;;;;;14.63;3.28;;;16.20;96.80;;;;;;4701849;30;20485;-80
2022/09/08 07:14:28;;;;;;;8.63;2.87;;;16.30;95.40;;;;;;4722067;24;20271;-80
2022/09/08 07:17:42;;;;;;;9.03;2.80;;;16.40;95.50;;;;;;4716468;30;20654;-82
2022/09/08 07:32:16;;;;;;;6.43;2.30;;;16.40;92.00;;;;;;4781606;24;20251;-83
2022/09/08 07:46:03;;;;;;;5.47;2.47;;;16.70;91.00;;;;;;4663039;30;20482;-81
2022/09/08 07:55:31;;;;;;;9.60;2.67;;;17.00;90.10;;;;;;4756051;24;20333;-82
2022/09/08 08:08:10;;;;;;;7.23;2.53;;;17.70;87.90;;;;;;4698486;30;20211;-82
2022/09/08 08:15:03;;;;;;;5.77;2.23;;;18.00;85.00;;;;;;4665793;30;20204;-80
2022/09/08 08:18:03;;;;;;;6.47;2.17;;;18.10;82.90;;;;;;4666088;30;20255;-83
2022/09/08 08:25:12;;;;;;;8.23;2.07;;;18.30;82.60;;;;;;4628912;31;20309;-75
2022/09/08 08:28:20;;;;;;;4.53;2.00;;;18.40;81.30;;;;;;4566028;31;20212;-77
2022/09/08 08:31:37;;;;;;;6.03;1.90;;;19.10;79.40;;;;;;4533440;31;20280;-75
2022/09/08 08:34:24;;;;;;;5.13;2.00;;;20.20;75.80;;;;;;4546673;31;20681;-74
2022/09/08 08:37:20;;;;;;;3.90;2.20;;;21.10;72.60;;;;;;4547015;31;20221;-73
2022/09/08 08:40:33;;;;;;;5.33;2.37;;;21.40;70.40;;;;;;4546869;31;20220;-79
2022/09/08 08:43:20;;;;;;;9.10;2.53;;;21.70;69.50;;;;;;4535022;31;20734;-75
2022/09/08 08:46:19;;;;;;;3.27;1.80;;;22.10;68.90;;;;;;4546949;31;20217;-75
2022/09/08 08:49:19;;;;;;;6.83;2.00;;;22.10;67.20;;;;;;4517443;31;20238;-77
2022/09/08 08:52:16;;;;;;;8.93;2.33;;;22.40;66.40;;;;;;4502670;31;20281;-76
2022/09/08 08:55:05;;;;;;;11.40;2.30;;;22.40;64.60;;;;;;4512627;31;20312;-77
2022/09/08 08:57:41;;;;;;;5.43;2.55;;;22.40;63.20;;;;;;4536829;31;20482;-79
2022/09/08 09:00:13;;;;;;;4.40;2.20;;;22.50;62.50;;;;;;4533455;31;20220;-79
2022/09/08 09:03:14;;;;;;;4.80;2.27;;;22.90;61.30;;;;;;4560011;31;20318;-78
2022/09/08 09:06:06;;;;;;;4.82;2.40;;;23.00;61.20;;;;;;4598373;31;20463;-77
2022/09/08 09:08:50;;;;;;;6.60;2.30;;;23.40;59.90;;;;;;4682484;30;20220;-74
2022/09/08 09:11:42;;;;;;;5.90;2.40;;;23.50;59.50;;;;;;4682560;30;20209;-77
2022/09/08 09:14:44;;;;;;;3.95;2.38;;;23.60;58.00;;;;;;4681285;30;20250;-77
2022/09/08 09:17:56;;;;;;;5.95;2.17;;;23.60;58.60;;;;;;4645914;30;20214;-77
2022/09/08 09:20:49;;;;;;;4.18;2.20;;;24.00;57.10;;;;;;4646056;30;20343;-76
2022/09/08 09:23:51;;;;;;;5.00;2.38;;;24.00;56.90;;;;;;4645902;30;20221;-77
2022/09/08 09:26:23;;;;;;;12.45;2.85;;;24.30;55.60;;;;;;4632031;30;20254;-78
2022/09/08 09:28:57;;;;;;;4.88;2.20;;;24.50;55.60;;;;;;4646075;30;20285;-74
2022/09/08 09:31:43;;;;;;;5.32;2.50;;;24.80;55.30;;;;;;4632008;30;20223;-75
2022/09/08 09:34:49;;;;;;;5.13;2.45;;;24.90;53.90;;;;;;4645548;30;20217;-79
2022/09/08 09:37:36;;;;;;;4.68;2.50;;;25.20;53.30;;;;;;4646850;30;20695;-71
2022/09/08 09:40:25;;;;;;;3.58;2.25;;;25.40;53.20;;;;;;4634982;30;20284;-76
2022/09/08 09:42:58;;;;;;;5.28;2.47;;;25.60;52.00;;;;;;4634695;30;20278;-71
2022/09/08 09:46:02;;;;;;;8.27;2.25;;;25.50;52.10;;;;;;4648946;30;20319;-75
2022/09/08 09:48:59;;;;;;;4.65;2.38;;;25.10;52.20;;;;;;4634229;30;20238;-76
2022/09/08 09:51:41;;;;;;;4.03;2.20;;;25.20;52.40;;;;;;4648718;30;20209;-78
2022/09/08 09:54:35;;;;;;;6.85;1.98;;;25.50;51.90;;;;;;4669810;30;20201;-77
2022/09/08 09:57:40;;;;;;;6.30;2.20;;;25.40;50.50;;;;;;4669376;30;20650;-75
2022/09/08 10:00:09;;;;;;;5.45;2.40;;;25.70;50.20;;;;;;4683645;30;20627;-79
2022/09/08 10:03:04;;;;;;;5.65;2.20;;;26.10;49.60;;;;;;4669178;30;20232;-78
2022/09/08 10:05:58;;;;;;;7.97;2.70;;;26.30;49.50;;;;;;4669412;30;20271;-76
2022/09/08 10:08:28;;;;;;;5.75;2.25;;;26.80;49.20;;;;;;4683572;30;20205;-73
2022/09/08 10:11:10;;;;;;;4.15;2.30;;;26.90;48.20;;;;;;4669308;30;20212;-73
2022/09/08 10:14:12;;;;;;;3.33;2.08;;;26.70;48.40;;;;;;4669070;30;20239;-75
2022/09/08 10:16:58;;;;;;;4.50;2.13;;;26.60;48.00;;;;;;4668955;30;20228;-73
2022/09/08 10:19:37;;;;;;;4.78;2.42;;;26.80;48.20;;;;;;4684488;30;20215;-77
2022/09/08 10:22:39;;;;;;;5.25;2.10;;;27.10;47.60;;;;;;4683477;30;20262;-78
2022/09/08 10:25:21;;;;;;;6.20;2.42;;;27.40;47.30;;;;;;4668467;30;20813;-76
2022/09/08 10:28:16;;;;;;;6.93;2.38;;;27.80;46.70;;;;;;4669129;30;20216;-77
2022/09/08 10:31:02;;;;;;;5.65;1.95;;;27.60;46.30;;;;;;4683162;30;20212;-74
2022/09/08 10:33:57;;;;;;;5.25;2.35;;;27.60;46.20;;;;;;4668560;30;20660;-78
2022/09/08 10:36:52;;;;;;;5.03;2.28;;;27.60;45.30;;;;;;4668764;30;20240;-77
2022/09/08 10:39:57;;;;;;;5.70;2.13;;;27.10;44.90;;;;;;4682081;30;20456;-81
2022/09/08 10:42:45;;;;;;;4.28;1.90;;;27.10;45.80;;;;;;4668662;30;20262;-80
2022/09/08 10:45:40;;;;;;;4.68;2.30;;;27.20;45.70;;;;;;4668676;30;20219;-75
2022/09/08 10:48:46;;;;;;;3.38;1.90;;;27.80;44.80;;;;;;4682220;30;20236;-78
2022/09/08 10:51:30;;;;;;;6.55;1.90;;;28.00;45.10;;;;;;4683207;30;20208;-73
2022/09/08 10:54:34;;;;;;;4.93;2.20;;;28.40;44.20;;;;;;4684473;30;20208;-79
2022/09/08 10:57:35;;;;;;;3.03;2.13;;;28.80;44.20;;;;;;4668470;30;20239;-79
2022/09/08 11:00:12;;;;;;;3.85;1.70;;;28.80;43.70;;;;;;4668450;30;20683;-77
2022/09/08 11:03:14;;;;;;;7.10;1.88;;;28.80;43.70;;;;;;4668080;30;20335;-79
2022/09/08 11:06:15;;;;;;;3.60;2.00;;;28.80;44.00;;;;;;4668375;30;20245;-77
2022/09/08 11:09:18;;;;;;;7.30;3.50;;;28.80;43.80;;;;;;4668720;30;20212;-76
2022/09/08 11:12:11;;;;;;;3.58;1.80;;;29.00;43.00;;;;;;4682639;30;20327;-71
2022/09/08 11:15:06;;;;;;;5.80;2.10;;;28.60;43.30;;;;;;4668396;30;20218;-71
2022/09/08 11:17:54;;;;;;;5.32;2.20;;;29.00;43.10;;;;;;4682378;30;20671;-77
2022/09/08 11:20:43;;;;;;;4.80;2.10;;;28.60;43.60;;;;;;4682487;30;20204;-77
2022/09/08 11:23:25;;;;;;;6.72;2.10;;;28.60;44.30;;;;;;4667897;30;20660;-77
2022/09/08 11:26:07;;;;;;;5.18;1.65;;;29.20;43.20;;;;;;4682126;30;20212;-80
2022/09/08 11:29:09;;;;;;;5.90;1.90;;;29.70;42.60;;;;;;4682339;30;20219;-78
2022/09/08 11:31:47;;;;;;;5.30;2.05;;;30.60;41.90;;;;;;4633092;30;20210;-78
2022/09/08 11:34:23;;;;;;;3.00;1.73;;;31.20;41.00;;;;;;4646906;30;20213;-78
2022/09/08 11:37:05;;;;;;;5.07;1.65;;;32.00;40.00;;;;;;4632755;30;20241;-77
2022/09/08 11:40:06;;;;;;;4.30;1.73;;;32.60;38.90;;;;;;4647357;30;20697;-83
2022/09/08 11:42:36;;;;;;;5.32;1.67;;;33.10;38.50;;;;;;4646801;30;20218;-77
2022/09/08 11:45:40;;;;;;;3.38;1.80;;;32.70;37.90;;;;;;4633128;30;20213;-83
2022/09/08 11:48:36;;;;;;;4.65;1.73;;;32.70;37.50;;;;;;4646797;30;20252;-79
2022/09/08 11:51:15;;;;;;;4.05;1.48;;;32.90;37.60;;;;;;4632600;30;20214;-81
2022/09/08 11:54:29;;;;;;;4.68;1.90;;;33.00;37.30;;;;;;4646791;30;20214;-80
2022/09/08 11:57:21;;;;;;;2.92;1.58;;;33.30;37.00;;;;;;4646870;30;20743;-79
2022/09/08 12:00:22;;;;;;;2.92;1.50;;;32.50;36.60;;;;;;4646725;30;20707;-76
2022/09/08 12:03:10;;;;;;;4.55;1.70;;;33.30;36.30;;;;;;4632220;30;20249;-75
2022/09/08 12:05:48;;;;;;;5.65;2.08;;;33.90;35.60;;;;;;4646704;30;20590;-75
2022/09/08 12:08:57;;;;;;;3.03;1.70;;;33.60;35.50;;;;;;4673203;30;20320;-76
2022/09/08 12:11:39;;;;;;;5.75;1.90;;;33.60;35.30;;;;;;4683144;30;20235;-74
2022/09/08 12:14:20;;;;;;;4.30;1.60;;;33.30;35.40;;;;;;4667601;30;20200;-71
2022/09/08 12:17:10;;;;;;;3.22;1.45;;;32.60;36.00;;;;;;4667241;30;20263;-74
2022/09/08 12:19:52;;;;;;;2.97;1.60;;;32.30;36.10;;;;;;4681388;30;20225;-78
2022/09/08 12:22:25;;;;;;;2.70;1.40;;;32.00;36.60;;;;;;4667058;30;20204;-77
2022/09/08 12:25:16;;;;;;;2.60;1.77;;;31.70;36.40;;;;;;4681392;30;20370;-73
2022/09/08 12:28:17;;;;;;;4.88;1.85;;;31.80;36.50;;;;;;4666001;30;20975;-75
2022/09/08 12:31:09;;;;;;;2.53;1.73;;;31.50;36.90;;;;;;4667303;30;20243;-77
2022/09/08 12:33:36;;;;;;;5.17;1.77;;;31.50;36.50;;;;;;4666963;30;20461;-76
2022/09/08 12:36:25;;;;;;;4.28;1.73;;;31.70;36.60;;;;;;4681509;30;20474;-77
2022/09/08 12:39:27;;;;;;;4.05;1.50;;;31.00;36.80;;;;;;4667269;30;20204;-80
2022/09/08 12:41:57;;;;;;;4.28;1.63;;;30.70;37.20;;;;;;4673972;30;20211;-77
2022/09/08 12:44:32;;;;;;;3.25;1.48;;;31.30;36.80;;;;;;4667312;30;20224;-78
2022/09/08 12:47:28;;;;;;;4.68;1.60;;;30.90;36.80;;;;;;4681485;30;20294;-77
2022/09/08 12:50:19;;;;;;;3.63;1.70;;;30.60;36.90;;;;;;4648429;30;20272;-80
2022/09/08 12:53:13;;;;;;;6.93;1.88;;;29.90;37.70;;;;;;4632016;30;20218;-76
2022/09/08 12:55:51;;;;;;;4.35;1.77;;;29.50;38.10;;;;;;4615243;31;20349;-76
2022/09/08 12:58:32;;;;;;;2.05;1.33;;;28.50;38.80;;;;;;4615247;31;20219;-80
2022/09/08 13:01:17;;;;;;;5.65;1.80;;;27.70;40.30;;;;;;4615135;31;20281;-80
2022/09/08 13:03:46;;;;;;;4.43;1.83;;;27.60;40.60;;;;;;4615118;31;20253;-79
2022/09/08 13:06:46;;;;;;;2.83;1.35;;;27.00;40.90;;;;;;4614775;31;20221;-80
2022/09/08 13:09:26;;;;;;;4.63;1.65;;;26.70;41.70;;;;;;4615278;31;20222;-80
2022/09/08 13:12:23;;;;;;;3.10;1.58;;;26.40;42.50;;;;;;4615927;31;20214;-78
2022/09/08 13:15:05;;;;;;;3.97;1.60;;;26.50;42.50;;;;;;4618681;31;20721;-77
2022/09/08 13:17:56;;;;;;;6.13;1.88;;;25.90;42.60;;;;;;4618580;31;20240;-78
2022/09/08 13:20:41;;;;;;;2.85;1.60;;;25.60;43.00;;;;;;4618183;31;20554;-75
2022/09/08 13:23:43;;;;;;;4.25;1.88;;;25.40;43.70;;;;;;4618449;31;20274;-75
2022/09/08 13:26:21;;;;;;;2.95;1.73;;;25.10;43.60;;;;;;4626570;30;20672;-78
2022/09/08 13:29:13;;;;;;;4.28;1.60;;;24.90;43.60;;;;;;4666165;30;20216;-78
2022/09/08 13:32:24;;;;;;;3.35;1.50;;;24.80;43.90;;;;;;4654292;30;20274;-75
2022/09/08 13:35:21;;;;;;;8.15;2.00;;;24.70;44.30;;;;;;4670010;30;20205;-76
2022/09/08 13:38:02;;;;;;;6.40;1.87;;;24.60;44.40;;;;;;4669827;30;20254;-74
2022/09/08 13:40:55;;;;;;;3.30;1.80;;;24.30;44.60;;;;;;4669588;30;20205;-77
2022/09/08 13:43:59;;;;;;;5.57;2.00;;;24.30;44.60;;;;;;4682065;30;20223;-75
2022/09/08 13:46:58;;;;;;;5.15;1.67;;;24.10;44.70;;;;;;4685008;30;20204;-77
2022/09/08 13:49:25;;;;;;;11.32;1.95;;;23.90;45.40;;;;;;4685131;30;20208;-77
2022/09/08 13:52:10;;;;;;;4.85;1.90;;;23.90;45.90;;;;;;4669343;30;20235;-76
2022/09/08 13:54:56;;;;;;;4.73;2.00;;;24.00;46.10;;;;;;4669706;30;20243;-76
2022/09/08 13:57:49;;;;;;;7.35;2.20;;;24.10;46.10;;;;;;4669362;30;20286;-72
2022/09/08 14:00:17;;;;;;;5.13;2.10;;;24.00;46.10;;;;;;4669341;30;20208;-74
2022/09/08 14:02:59;;;;;;;4.35;2.10;;;24.00;46.90;;;;;;4669170;30;20581;-74
2022/09/08 14:05:33;;;;;;;6.80;2.15;;;24.10;46.50;;;;;;4669153;30;20215;-73
2022/09/08 14:08:09;;;;;;;4.05;1.88;;;24.10;46.40;;;;;;4683630;30;20218;-77
2022/09/08 14:11:11;;;;;;;5.07;1.98;;;23.90;47.00;;;;;;4669021;30;20303;-76
2022/09/08 14:13:38;;;;;;;5.35;1.90;;;23.70;47.00;;;;;;4669025;30;20223;-77
2022/09/08 14:16:29;;;;;;;4.63;2.10;;;23.60;47.10;;;;;;4668913;30;20204;-75
2022/09/08 14:19:12;;;;;;;4.00;1.80;;;23.40;47.40;;;;;;4683426;30;20219;-75
2022/09/08 14:21:45;;;;;;;2.60;2.00;;;23.30;48.00;;;;;;4668902;30;20680;-74
2022/09/08 14:24:49;;;;;;;5.45;1.98;;;23.20;48.10;;;;;;4668097;30;20212;-78
2022/09/08 14:27:24;;;;;;;5.28;2.10;;;23.10;48.30;;;;;;4668769;30;20579;-74
2022/09/08 14:30:20;;;;;;;4.47;1.90;;;23.20;48.80;;;;;;4669149;30;20212;-75
2022/09/08 14:32:54;;;;;;;3.40;2.00;;;23.10;48.90;;;;;;4668481;30;20235;-74
2022/09/08 14:35:46;;;;;;;4.80;1.93;;;23.10;49.10;;;;;;4668616;30;20250;-75
2022/09/08 14:38:42;;;;;;;4.37;1.83;;;23.10;48.80;;;;;;4668783;30;20288;-75
2022/09/08 14:41:21;;;;;;;4.90;1.90;;;23.10;48.80;;;;;;4666651;30;20216;-82
2022/09/08 14:44:03;;;;;;;11.50;2.13;;;23.00;48.70;;;;;;4651196;30;20209;-73
2022/09/08 14:46:42;;;;;;;5.40;2.10;;;23.00;49.10;;;;;;4651147;30;20213;-74
2022/09/08 14:49:12;;;;;;;8.33;2.30;;;22.90;49.40;;;;;;4650951;30;20209;-76
2022/09/08 14:51:48;;;;;;;6.57;2.20;;;22.80;49.50;;;;;;4650889;30;20220;-75
2022/09/08 14:54:40;;;;;;;5.53;2.37;;;22.80;49.90;;;;;;4651228;30;20268;-78
2022/09/08 14:57:19;;;;;;;4.20;1.63;;;22.60;50.40;;;;;;4651134;30;20240;-78
2022/09/08 15:24:47;;;;;;;3.13;1.67;;;22.30;51.00;;;;;;4879279;24;20576;-85
2022/09/08 15:27:29;;;;;;;3.27;1.60;;;22.10;51.50;;;;;;4718263;30;20667;-84
2022/09/08 15:35:42;;;;;;;6.47;1.80;;;21.80;52.00;;;;;;4734753;30;20214;-90
2022/09/08 15:39:15;;;;;;;2.90;1.70;;;21.70;52.00;;;;;;4734062;30;20697;-81
2022/09/08 15:45:51;;;;;;;5.73;1.97;;;21.70;52.50;;;;;;4815552;24;20253;-85
2022/09/08 15:48:51;;;;;;;8.33;2.10;;;21.60;52.80;;;;;;4726099;30;20235;-84
2022/09/08 15:51:38;;;;;;;6.37;1.90;;;21.50;52.80;;;;;;4717699;30;20214;-89
2022/09/08 15:54:50;;;;;;;4.43;1.50;;;21.50;53.00;;;;;;4716864;30;20211;-93
2022/09/08 15:58:13;;;;;;;4.70;1.80;;;21.40;53.30;;;;;;4717381;30;20234;-91
2022/09/08 16:01:13;;;;;;;6.77;1.83;;;21.30;53.60;;;;;;4718257;30;20666;-95
2022/09/08 16:04:11;;;;;;;4.27;1.80;;;21.30;53.60;;;;;;4666191;30;20747;-86
2022/09/08 16:07:09;;;;;;;5.60;2.10;;;21.20;53.10;;;;;;4667436;30;20295;-88
2022/09/08 16:10:06;;;;;;;5.63;1.90;;;21.20;53.10;;;;;;4681186;30;20236;-93
2022/09/08 16:18:24;;;;;;;3.83;1.60;;;20.90;54.00;;;;;;4715886;30;20614;-83
2022/09/08 16:21:30;;;;;;;4.90;1.90;;;20.90;54.00;;;;;;4708109;24;20646;-84
2022/09/08 16:25:05;;;;;;;3.17;1.80;;;20.90;54.10;;;;;;4682589;30;20220;-87
2022/09/08 16:30:44;;;;;;;4.27;1.90;;;20.60;54.60;;;;;;4659497;30;20217;-75
2022/09/08 16:33:18;;;;;;;4.57;1.90;;;20.50;55.10;;;;;;4661440;30;20214;-72
2022/09/08 16:36:11;;;;;;;6.03;1.67;;;20.50;55.10;;;;;;4648756;30;20351;-73
2022/09/08 16:38:44;;;;;;;7.70;2.20;;;20.40;55.40;;;;;;4648183;30;20233;-74
2022/09/08 16:41:14;;;;;;;5.67;1.80;;;20.40;55.40;;;;;;4632834;30;20300;-74
2022/09/08 16:43:49;;;;;;;5.77;2.10;;;20.30;55.30;;;;;;4633278;30;20206;-74
2022/09/08 16:46:30;;;;;;;5.43;1.90;;;20.20;55.40;;;;;;4648283;30;20208;-76
2022/09/08 16:49:16;;;;;;;3.93;1.90;;;20.00;55.50;;;;;;4651827;30;20221;-75
2022/09/08 16:52:01;;;;;;;8.10;2.30;;;20.00;55.80;;;;;;4650309;30;20217;-76
2022/09/08 16:54:51;;;;;;;5.90;1.90;;;20.00;56.20;;;;;;4650278;30;20244;-77
2022/09/08 16:57:22;;;;;;;3.53;1.77;;;19.80;56.30;;;;;;4650560;30;20226;-78
2022/09/08 17:00:28;;;;;;;4.10;2.20;;;19.80;56.70;;;;;;4651316;30;20260;-78
2022/09/08 17:03:03;;;;;;;5.03;2.20;;;19.70;56.70;;;;;;4650135;30;20303;-78
2022/09/08 17:05:57;;;;;;;4.73;2.03;;;19.60;57.10;;;;;;4650410;30;20202;-76
2022/09/08 17:08:27;;;;;;;4.23;2.00;;;19.60;57.20;;;;;;4650104;30;20222;-74
2022/09/08 17:11:07;;;;;;;7.03;2.20;;;19.60;57.40;;;;;;4650218;30;20557;-77
2022/09/08 17:13:35;;;;;;;4.87;2.30;;;19.50;57.80;;;;;;4650175;30;20213;-73
2022/09/08 17:16:17;;;;;;;6.13;2.60;;;19.50;58.00;;;;;;4650152;30;20255;-76
2022/09/08 17:18:56;;;;;;;8.70;2.50;;;19.40;58.10;;;;;;4650035;30;20242;-75
2022/09/08 17:21:43;;;;;;;6.03;2.60;;;19.30;58.40;;;;;;4650206;30;20217;-76
2022/09/08 17:24:31;;;;;;;5.60;2.73;;;19.30;58.50;;;;;;4650092;30;20536;-75
2022/09/08 17:27:14;;;;;;;6.23;2.60;;;19.20;58.70;;;;;;4650114;30;20214;-76
2022/09/08 17:30:26;;;;;;;6.93;2.67;;;19.10;59.00;;;;;;4649994;30;20252;-86
2022/09/08 17:33:18;;;;;;;6.07;2.60;;;19.10;59.20;;;;;;4649548;30;20221;-91
2022/09/08 17:36:29;;;;;;;10.40;3.10;;;19.10;59.30;;;;;;4649255;30;20565;-90
2022/09/08 17:39:09;;;;;;;5.93;2.50;;;19.00;59.40;;;;;;4634885;30;20379;-90
2022/09/08 17:42:20;;;;;;;6.03;2.70;;;19.00;59.60;;;;;;4634737;30;20220;-91
2022/09/08 17:45:28;;;;;;;8.00;2.80;;;19.00;59.70;;;;;;4661573;24;20705;-91
2022/09/08 17:48:20;;;;;;;7.03;2.90;;;18.90;60.10;;;;;;4685977;30;20235;-86
2022/09/08 17:51:28;;;;;;;5.10;2.40;;;18.80;60.00;;;;;;4687059;30;20229;-87
2022/09/08 17:54:05;;;;;;;7.47;3.00;;;18.70;60.10;;;;;;4702024;30;20231;-86
2022/09/08 17:56:44;;;;;;;6.87;2.80;;;18.70;60.30;;;;;;4701111;30;20697;-86
2022/09/08 17:59:42;;;;;;;5.17;2.50;;;18.70;60.40;;;;;;4686523;30;20215;-88
2022/09/08 18:34:36;;;;;;;5.73;3.30;;;18.20;62.70;;;;;;4732311;24;20632;-79
2022/09/08 18:44:25;;;;;;;6.87;2.90;;;18.20;62.90;;;;;;4823762;24;20245;-81
2022/09/08 19:07:51;;;;;;;7.97;3.20;;;17.90;64.30;;;;;;4717923;30;20191;-85
2022/09/08 19:15:18;;;;;;;8.17;2.97;;;17.90;63.90;;;;;;4717934;30;20191;-86
2022/09/08 19:17:56;;;;;;;5.77;3.00;;;17.90;64.10;;;;;;4718656;30;20238;-87
2022/09/08 19:20:29;;;;;;;7.13;2.93;;;17.80;63.70;;;;;;4703138;30;20570;-85
2022/09/08 19:30:33;;;;;;;5.53;2.80;;;17.80;63.60;;;;;;4648173;30;20257;-85
2022/09/08 19:33:51;;;;;;;5.47;2.77;;;17.80;63.40;;;;;;4647975;30;20213;-85
2022/09/08 19:39:09;;;;;;;7.57;2.80;;;17.80;63.20;;;;;;4717155;30;20304;-88
2022/09/08 19:56:52;;;;;;;5.97;2.40;;;17.80;63.00;;;;;;4699380;30;20223;-83
2022/09/08 19:59:39;;;;;;;8.07;3.10;;;17.90;63.00;;;;;;4684649;30;20203;-84
2022/09/08 20:02:23;;;;;;;8.93;2.90;;;17.90;62.80;;;;;;4670398;30;20220;-83
2022/09/08 20:05:24;;;;;;;11.67;2.90;;;17.80;63.00;;;;;;4684739;30;20203;-82
2022/09/08 20:08:00;;;;;;;5.27;2.70;;;17.80;63.30;;;;;;4684565;30;20216;-86
2022/09/08 20:10:30;;;;;;;4.93;2.63;;;17.80;63.60;;;;;;4700121;30;20310;-85
2022/09/08 20:13:09;;;;;;;7.10;3.07;;;17.70;63.80;;;;;;4684283;30;20212;-87
2022/09/08 20:16:02;;;;;;;7.50;2.87;;;17.70;63.80;;;;;;4699043;30;20207;-85
2022/09/08 20:38:58;;;;;;;9.23;3.17;;;17.70;64.10;;;;;;5151612;27;20491;-82
2022/09/08 20:42:43;;;;;;;6.87;3.10;;;17.80;63.90;;;;;;5052381;22;20688;-83
2022/09/08 20:45:51;;;;;;;6.90;2.60;;;17.70;63.90;;;;;;5074315;22;20342;-83
2022/09/08 20:48:47;;;;;;;8.07;2.90;;;17.70;63.90;;;;;;4973815;28;20224;-82
2022/09/08 20:51:43;;;;;;;8.03;3.13;;;17.80;64.10;;;;;;5007893;28;20199;-82
2022/09/08 20:54:43;;;;;;;9.37;3.17;;;17.70;63.80;;;;;;4991358;28;20701;-84
2022/09/08 20:57:22;;;;;;;8.67;2.90;;;17.70;64.00;;;;;;4991584;28;20661;-83
2022/09/08 20:59:55;;;;;;;5.70;2.67;;;17.70;63.50;;;;;;4991624;28;20232;-79
2022/09/08 21:02:33;;;;;;;6.83;2.80;;;17.80;63.60;;;;;;4991440;28;20208;-81
2022/09/08 21:08:32;;;;;;;6.83;2.80;;;17.90;63.50;;;;;;4991600;28;20201;-84
2022/09/08 21:11:35;;;;;;;9.23;3.07;;;17.90;63.20;;;;;;4975112;28;20204;-82
2022/09/08 21:15:28;;;;;;;19.67;4.07;;;17.90;66.00;;;;;;4873728;29;20204;-79
2022/09/08 21:21:56;;;;;;;10.90;3.00;;;16.10;93.40;;;;;;5049392;28;20202;-78
2022/09/08 21:31:59;;;;;;;8.00;2.90;;;15.10;94.90;;;;;;5027772;28;20202;-86
2022/09/08 21:53:49;;;;;;;7.37;3.83;;;15.50;97.30;;;;;;4847686;22;20231;-84
2022/09/08 21:56:23;;;;;;;7.90;3.60;;;15.40;98.30;;;;;;5035374;28;20521;-86
2022/09/08 21:59:11;;;;;;;5.63;3.43;;;15.40;99.90;;;;;;5018021;28;20210;-84
2022/09/08 22:01:49;;;;;;;10.47;3.40;;;15.30;96.60;;;;;;5017495;28;20231;-83
2022/09/08 22:04:41;;;;;;;8.00;3.50;;;15.50;95.80;;;;;;5035512;28;20278;-84
2022/09/08 22:07:30;;;;;;;6.83;3.30;;;15.50;94.20;;;;;;5017237;28;20219;-86
2022/09/08 22:56:20;;;;;;;8.67;4.13;;;14.40;99.90;;;;;;4973165;28;20198;-83
2022/09/08 22:59:14;;;;;;;9.03;4.23;;;14.20;99.90;;;;;;4958083;28;20281;-84
2022/09/08 23:11:10;;;;;;;11.10;4.77;;;13.60;99.90;;;;;;5033018;28;20211;-83
2022/09/08 23:21:42;;;;;;;7.33;4.20;;;13.20;99.90;;;;;;5014437;28;20212;-83
2022/09/08 23:25:24;;;;;;;6.27;4.10;;;13.10;99.90;;;;;;5017545;22;20225;-82
2022/09/08 23:32:17;;;;;;;8.50;4.57;;;12.90;99.90;;;;;;5151381;22;20259;-81
2022/09/08 23:56:10;;;;;;;9.67;5.00;;;12.10;99.90;;;;;;4953755;28;20198;-81
2022/09/08 23:58:37;;;;;;;13.17;5.23;;;12.10;99.90;;;;;;4937976;29;20249;-79
